Time;durP1;ratioP1;P1;durP2;ratioP2;P2;SDS_P1;SDS_P2;PMS_P1;PMS_P2;Temp;Humidity;BMP_temperature;BMP_pressure;BME280_temperature;BME280_humidity;BME280_pressure;Samples;Min_cycle;Max_cycle;Signal;HPM_P1;HPM_P2
2022/12/12 00:01:11;;;;;;;;;30.50;30.25;;;;;-0.16;100.00;100771.53;5026726;28;45512;-77
2022/12/12 00:03:36;;;;;;;;;48.50;37.25;;;;;-0.15;100.00;100765.25;5034506;28;46861;-78
2022/12/12 00:06:03;;;;;;;;;48.75;43.25;;;;;-0.07;100.00;100772.81;5038735;28;45411;-78
2022/12/12 00:08:29;;;;;;;;;47.75;39.00;;;;;-0.18;100.00;100757.38;5034842;28;45354;-78
2022/12/12 00:10:54;;;;;;;;;46.25;38.50;;;;;-0.06;100.00;100775.41;5039368;28;45429;-78
2022/12/12 00:13:20;;;;;;;;;48.50;37.25;;;;;-0.04;100.00;100770.00;5035267;28;46685;-79
2022/12/12 00:15:45;;;;;;;;;46.00;35.25;;;;;-0.07;100.00;100759.47;5039498;28;45413;-78
2022/12/12 00:18:10;;;;;;;;;41.00;33.50;;;;;-0.05;100.00;100761.13;5036163;28;45535;-78
2022/12/12 00:20:36;;;;;;;;;43.75;38.00;;;;;-0.01;100.00;100765.38;5038034;28;45455;-78
2022/12/12 00:23:01;;;;;;;;;30.00;27.50;;;;;0.10;100.00;100766.59;5032863;28;46275;-79
2022/12/12 00:25:26;;;;;;;;;53.75;38.75;;;;;0.06;100.00;100773.94;5034075;28;45481;-78
2022/12/12 00:27:52;;;;;;;;;47.75;36.75;;;;;0.07;100.00;100782.81;5034479;28;45378;-78
2022/12/12 00:30:17;;;;;;;;;41.00;34.75;;;;;0.08;100.00;100773.81;5035636;28;45327;-78
2022/12/12 00:32:42;;;;;;;;;39.50;31.00;;;;;0.14;100.00;100773.53;5035006;28;46077;-76
2022/12/12 00:35:08;;;;;;;;;46.25;38.75;;;;;0.24;100.00;100788.09;5035904;28;45351;-78
2022/12/12 00:37:33;;;;;;;;;32.50;23.50;;;;;0.21;100.00;100785.59;5036244;28;45307;-78
2022/12/12 00:39:58;;;;;;;;;39.00;31.00;;;;;0.19;100.00;100790.16;5032415;28;45231;-78
2022/12/12 00:42:26;;;;;;;;;42.50;32.50;;;;;0.22;100.00;100790.84;5036208;28;46326;-78
2022/12/12 00:44:51;;;;;;;;;40.75;31.00;;;;;0.20;100.00;100778.53;5040605;28;45931;-78
2022/12/12 00:47:17;;;;;;;;;36.00;30.50;;;;;0.18;100.00;100786.63;5036313;28;45705;-78
2022/12/12 00:49:42;;;;;;;;;43.25;31.25;;;;;0.20;100.00;100791.88;5039587;28;45747;-78
2022/12/12 00:52:07;;;;;;;;;45.25;34.00;;;;;0.19;100.00;100798.16;5039469;28;48477;-77
2022/12/12 00:54:33;;;;;;;;;36.50;27.50;;;;;-0.01;100.00;100784.06;5032522;28;45421;-79
2022/12/12 00:56:58;;;;;;;;;32.00;30.25;;;;;0.12;100.00;100789.63;5034521;28;45619;-78
2022/12/12 00:59:23;;;;;;;;;43.25;30.50;;;;;0.14;100.00;100790.41;5036086;28;45470;-78
2022/12/12 01:01:49;;;;;;;;;50.25;40.75;;;;;0.19;100.00;100792.84;5038595;28;46115;-78
2022/12/12 01:04:14;;;;;;;;;23.00;16.50;;;;;0.17;100.00;100792.03;5034134;28;45760;-78
2022/12/12 01:06:40;;;;;;;;;37.50;31.25;;;;;0.15;100.00;100792.13;5035360;28;46019;-77
2022/12/12 01:09:05;;;;;;;;;48.25;35.25;;;;;0.21;100.00;100790.94;5037122;28;45550;-78
2022/12/12 01:11:30;;;;;;;;;36.00;29.50;;;;;0.19;100.00;100783.00;5030019;28;45299;-78
2022/12/12 01:13:56;;;;;;;;;45.50;32.50;;;;;0.15;100.00;100775.22;5025266;28;45343;-77
2022/12/12 01:16:22;;;;;;;;;45.25;33.50;;;;;0.17;100.00;100784.88;5039610;28;45491;-77
2022/12/12 01:18:48;;;;;;;;;39.25;32.75;;;;;0.12;100.00;100775.41;5040046;28;45432;-78
2022/12/12 01:21:17;;;;;;;;;34.50;29.00;;;;;0.11;100.00;100779.88;5040346;28;46362;-77
2022/12/12 01:23:42;;;;;;;;;41.75;32.50;;;;;0.10;100.00;100785.28;5032993;28;45249;-78
2022/12/12 01:26:11;;;;;;;;;34.75;32.25;;;;;0.16;100.00;100783.16;5034065;28;45259;-78
2022/12/12 01:28:37;;;;;;;;;47.00;31.25;;;;;0.22;100.00;100792.69;5041769;28;45303;-79
2022/12/12 01:31:02;;;;;;;;;34.00;27.75;;;;;0.24;100.00;100788.97;5040526;28;46843;-77
2022/12/12 01:33:28;;;;;;;;;28.50;22.75;;;;;0.23;100.00;100789.03;5041765;28;45452;-77
2022/12/12 01:35:53;;;;;;;;;36.25;29.25;;;;;0.23;100.00;100781.03;5030145;28;45287;-78
2022/12/12 01:38:19;;;;;;;;;40.75;30.50;;;;;0.28;100.00;100797.69;5036057;28;45398;-77
2022/12/12 01:40:44;;;;;;;;;38.25;33.00;;;;;0.28;100.00;100800.34;5036122;28;45503;-78
2022/12/12 01:43:14;;;;;;;;;36.25;28.00;;;;;0.26;100.00;100794.22;5054554;28;45393;-78
2022/12/12 01:46:20;;;;;;;;;34.00;27.50;;;;;0.19;100.00;100793.69;5034954;28;45435;-76
2022/12/12 01:48:55;;;;;;;;;28.75;23.75;;;;;0.25;100.00;100797.84;5029172;28;45466;-77
2022/12/12 01:51:23;;;;;;;;;38.50;31.00;;;;;0.18;100.00;100799.97;5037062;28;46607;-77
2022/12/12 01:53:55;;;;;;;;;38.50;30.25;;;;;0.13;100.00;100802.03;5027558;28;45244;-78
2022/12/12 01:56:22;;;;;;;;;36.50;32.00;;;;;0.11;100.00;100798.56;5037259;28;45294;-78
2022/12/12 01:58:52;;;;;;;;;35.50;29.75;;;;;0.14;100.00;100789.53;5032110;28;45498;-78
2022/12/12 02:01:19;;;;;;;;;35.50;25.75;;;;;0.17;100.00;100789.38;5041260;28;45550;-78
2022/12/12 02:03:47;;;;;;;;;27.75;25.75;;;;;0.19;100.00;100796.38;5034951;28;45268;-78
2022/12/12 02:06:17;;;;;;;;;35.25;28.75;;;;;0.12;100.00;100796.78;5026339;28;45548;-78
2022/12/12 02:08:45;;;;;;;;;23.25;20.00;;;;;0.16;100.00;100795.66;5037664;28;45632;-78
2022/12/12 02:11:10;;;;;;;;;43.50;30.25;;;;;0.19;100.00;100798.16;5027679;28;45523;-78
2022/12/12 02:13:36;;;;;;;;;28.50;25.00;;;;;0.19;100.00;100793.69;5036951;28;45928;-77
2022/12/12 02:16:23;;;;;;;;;45.25;26.00;;;;;0.25;100.00;100797.84;5028704;28;45518;-78
2022/12/12 02:18:56;;;;;;;;;34.25;33.50;;;;;0.21;100.00;100791.81;5041001;28;45374;-77
2022/12/12 02:21:32;;;;;;;;;35.25;26.50;;;;;0.25;100.00;100800.50;5033558;28;46850;-77
2022/12/12 02:24:24;;;;;;;;;47.25;36.00;;;;;0.28;100.00;100800.34;5038335;28;45389;-79
2022/12/12 02:26:52;;;;;;;;;34.25;24.00;;;;;0.25;100.00;100803.19;5044862;28;45436;-78
2022/12/12 02:29:47;;;;;;;;;37.25;26.75;;;;;0.31;100.00;100813.53;5039868;28;45482;-77
2022/12/12 02:32:37;;;;;;;;;34.50;25.00;;;;;0.34;100.00;100808.03;5035143;28;45712;-76
2022/12/12 02:35:10;;;;;;;;;39.25;26.00;;;;;0.27;100.00;100795.97;5038781;28;45289;-77
2022/12/12 02:37:50;;;;;;;;;37.75;28.75;;;;;0.22;100.00;100800.69;5036708;28;45331;-77
2022/12/12 02:40:33;;;;;;;;;34.25;30.25;;;;;0.17;100.00;100800.91;5044932;28;45417;-78
2022/12/12 02:43:12;;;;;;;;;43.00;31.25;;;;;0.20;100.00;100790.09;5032868;28;48039;-77
2022/12/12 02:45:44;;;;;;;;;32.50;24.25;;;;;0.22;100.00;100798.84;5032319;28;45605;-78
2022/12/12 02:48:23;;;;;;;;;35.50;26.75;;;;;0.24;100.00;100806.78;5039334;28;45283;-78
2022/12/12 02:50:54;;;;;;;;;33.50;28.75;;;;;0.28;100.00;100803.03;5038670;28;45267;-78
2022/12/12 02:53:22;;;;;;;;;33.50;25.00;;;;;0.29;100.00;100797.59;5029061;28;46637;-78
2022/12/12 02:55:48;;;;;;;;;32.00;23.75;;;;;0.31;100.00;100798.38;5038656;28;45419;-78
2022/12/12 02:58:14;;;;;;;;;39.50;26.25;;;;;0.24;100.00;100786.28;5036994;28;45384;-77
2022/12/12 03:01:10;;;;;;;;;28.00;25.25;;;;;0.34;100.00;100797.34;5041656;28;45223;-78
2022/12/12 03:07:48;;;;;;;;;36.50;31.25;;;;;0.26;100.00;100786.22;5005926;28;45576;-78
2022/12/12 03:10:26;;;;;;;;;38.25;28.25;;;;;0.27;100.00;100785.28;5030464;28;45389;-78
2022/12/12 03:13:16;;;;;;;;;39.00;25.00;;;;;0.30;100.00;100787.75;5029874;28;45346;-78
2022/12/12 03:15:49;;;;;;;;;40.50;33.00;;;;;0.33;100.00;100784.94;5027279;28;45274;-78
2022/12/12 03:18:30;;;;;;;;;40.00;27.00;;;;;0.25;100.00;100787.16;5036319;28;45465;-78
2022/12/12 03:21:27;;;;;;;;;31.50;27.75;;;;;0.33;100.00;100784.94;5039391;28;45582;-77
2022/12/12 03:23:58;;;;;;;;;33.00;26.50;;;;;0.36;100.00;100784.78;5024143;28;45419;-78
2022/12/12 03:26:55;;;;;;;;;34.50;28.00;;;;;0.40;100.00;100791.66;5035464;28;46878;-79
2022/12/12 03:29:31;;;;;;;;;30.50;25.25;;;;;0.31;100.00;100794.84;5038252;28;45297;-78
2022/12/12 03:32:05;;;;;;;;;30.25;24.75;;;;;0.37;100.00;100791.81;5036019;28;45263;-78
2022/12/12 03:34:44;;;;;;;;;33.75;27.75;;;;;0.32;100.00;100781.41;5033850;28;45493;-78
2022/12/12 03:37:17;;;;;;;;;28.75;21.50;;;;;0.41;100.00;100787.19;5039794;28;45425;-79
2022/12/12 03:39:49;;;;;;;;;37.00;28.75;;;;;0.47;100.00;100786.84;5041871;28;45413;-78
2022/12/12 03:42:22;;;;;;;;;43.50;31.25;;;;;0.37;100.00;100778.47;5034027;28;45394;-78
2022/12/12 03:44:54;;;;;;;;;30.00;24.50;;;;;0.43;100.00;100788.84;5043261;28;45338;-78
2022/12/12 03:47:27;;;;;;;;;28.25;22.50;;;;;0.42;100.00;100791.59;5037593;28;45510;-78
2022/12/12 03:50:13;;;;;;;;;41.25;29.50;;;;;0.37;100.00;100797.16;5040774;28;45402;-78
2022/12/12 03:52:44;;;;;;;;;32.50;26.75;;;;;0.42;100.00;100794.28;5036482;28;45334;-78
2022/12/12 03:55:46;;;;;;;;;30.25;24.50;;;;;0.47;100.00;100802.91;5037800;28;45775;-79
2022/12/12 03:58:11;;;;;;;;;28.25;22.50;;;;;0.47;100.00;100797.53;5039204;28;45614;-78
2022/12/12 04:00:39;;;;;;;;;27.25;23.50;;;;;0.48;100.00;100802.81;5044050;28;45394;-79
2022/12/12 04:03:23;;;;;;;;;31.50;29.00;;;;;0.51;100.00;100793.78;5038052;28;45445;-78
2022/12/12 04:06:25;;;;;;;;;32.00;22.25;;;;;0.55;100.00;100806.00;5027447;28;45262;-79
2022/12/12 04:15:13;;;;;;;;;28.50;23.50;;;;;0.45;100.00;100815.47;5032917;28;45337;-78
2022/12/12 04:18:00;;;;;;;;;32.25;27.25;;;;;0.41;100.00;100822.81;5044307;28;45592;-78
2022/12/12 04:23:46;;;;;;;;;32.50;28.25;;;;;0.53;100.00;100830.16;5033863;28;45344;-78
2022/12/12 04:26:38;;;;;;;;;50.75;43.00;;;;;0.55;100.00;100828.25;5032950;28;45560;-77
2022/12/12 04:29:32;;;;;;;;;26.75;21.75;;;;;0.59;100.00;100829.81;5040398;28;45449;-78
2022/12/12 04:32:21;;;;;;;;;34.00;26.25;;;;;0.57;100.00;100810.34;5028914;28;45670;-78
2022/12/12 04:34:53;;;;;;;;;27.75;23.25;;;;;0.59;100.00;100818.25;5033185;28;45386;-78
2022/12/12 04:37:28;;;;;;;;;34.75;26.00;;;;;0.56;100.00;100819.31;5039598;28;45384;-78
2022/12/12 04:39:58;;;;;;;;;29.50;28.50;;;;;0.63;100.00;100819.84;5038354;28;45479;-77
2022/12/12 04:42:28;;;;;;;;;25.00;20.00;;;;;0.68;100.00;100813.28;5038229;28;45283;-78
2022/12/12 04:45:01;;;;;;;;;38.75;33.00;;;;;0.66;100.00;100801.78;5030667;28;45525;-78
2022/12/12 04:47:30;;;;;;;;;34.00;26.50;;;;;0.75;100.00;100816.47;5038873;28;45368;-78
2022/12/12 04:49:57;;;;;;;;;32.25;22.25;;;;;0.72;100.00;100819.34;5050977;28;45367;-78
2022/12/12 04:52:25;;;;;;;;;32.00;28.00;;;;;0.68;100.00;100820.44;5035490;28;46700;-77
2022/12/12 04:55:23;;;;;;;;;38.25;30.50;;;;;0.71;100.00;100826.50;5038451;28;44825;-78
2022/12/12 04:57:52;;;;;;;;;28.50;23.50;;;;;0.73;100.00;100829.91;5029763;28;45509;-77
2022/12/12 05:00:19;;;;;;;;;29.75;25.50;;;;;0.74;100.00;100823.63;5029362;28;45398;-78
2022/12/12 05:03:04;;;;;;;;;33.25;25.75;;;;;0.76;100.00;100829.75;5036952;28;47072;-77
2022/12/12 05:05:37;;;;;;;;;30.50;21.75;;;;;0.75;100.00;100825.34;5025112;28;45696;-77
2022/12/12 05:08:31;;;;;;;;;30.50;26.75;;;;;0.71;100.00;100823.81;5027722;28;45448;-78
2022/12/12 05:11:00;;;;;;;;;31.75;26.00;;;;;0.71;100.00;100818.47;5023361;28;45354;-78
2022/12/12 05:13:32;;;;;;;;;34.00;26.50;;;;;0.71;100.00;100814.94;5036183;28;46128;-78
2022/12/12 05:16:00;;;;;;;;;29.75;24.75;;;;;0.66;100.00;100796.44;5029149;28;45263;-79
2022/12/12 05:18:25;;;;;;;;;30.50;24.50;;;;;0.59;100.00;100795.06;5029919;28;45248;-79
2022/12/12 05:20:51;;;;;;;;;31.00;27.50;;;;;0.63;100.00;100803.78;5042014;28;45643;-77
2022/12/12 05:23:16;;;;;;;;;31.00;24.25;;;;;0.55;100.00;100814.03;5034918;28;46505;-79
2022/12/12 05:25:42;;;;;;;;;31.75;26.75;;;;;0.60;100.00;100818.19;5043271;28;45436;-77
2022/12/12 05:28:07;;;;;;;;;25.25;21.00;;;;;0.60;100.00;100817.31;5039886;28;45347;-77
2022/12/12 05:30:33;;;;;;;;;49.50;42.50;;;;;0.69;100.00;100825.69;5028299;28;45653;-77
2022/12/12 05:32:59;;;;;;;;;28.50;20.75;;;;;0.66;100.00;100820.50;5034186;28;45531;-77
2022/12/12 05:35:25;;;;;;;;;29.00;27.25;;;;;0.69;100.00;100822.16;5035432;28;45401;-75
2022/12/12 05:37:50;;;;;;;;;35.75;30.00;;;;;0.61;100.00;100805.69;5033387;28;45560;-75
2022/12/12 05:40:16;;;;;;;;;37.25;33.75;;;;;0.69;100.00;100820.34;5035946;28;45349;-75
2022/12/12 05:42:41;;;;;;;;;37.00;32.25;;;;;0.66;100.00;100809.81;5035793;28;46411;-76
2022/12/12 05:45:08;;;;;;;;;33.75;30.25;;;;;0.63;100.00;100799.31;5037875;28;45530;-76
2022/12/12 05:47:34;;;;;;;;;34.50;27.50;;;;;0.65;100.00;100802.78;5033742;28;45228;-75
2022/12/12 05:49:59;;;;;;;;;34.25;31.00;;;;;0.67;100.00;100800.84;5033511;28;45589;-75
2022/12/12 05:52:25;;;;;;;;;47.00;32.75;;;;;0.73;100.00;100805.84;5038535;28;45568;-75
2022/12/12 05:54:50;;;;;;;;;31.25;30.50;;;;;0.77;100.00;100814.59;5037655;28;45321;-76
2022/12/12 05:57:17;;;;;;;;;37.00;28.25;;;;;0.77;100.00;100815.44;5033194;28;45671;-76
2022/12/12 05:59:44;;;;;;;;;43.75;32.75;;;;;0.73;100.00;100821.06;5036624;28;45420;-75
2022/12/12 06:02:10;;;;;;;;;28.00;25.00;;;;;0.71;100.00;100807.78;5035505;28;45512;-76
2022/12/12 06:04:35;;;;;;;;;32.75;28.25;;;;;0.73;100.00;100803.19;5031389;28;45459;-75
2022/12/12 06:07:00;;;;;;;;;37.00;24.75;;;;;0.77;100.00;100802.09;5029400;28;45347;-75
2022/12/12 06:09:26;;;;;;;;;34.75;31.00;;;;;0.67;100.00;100800.84;5032295;28;45375;-75
2022/12/12 06:11:51;;;;;;;;;34.25;27.75;;;;;0.81;100.00;100820.63;5028753;28;46781;-75
2022/12/12 06:14:16;;;;;;;;;39.25;31.75;;;;;0.75;100.00;100805.78;5031728;28;45401;-78
2022/12/12 06:16:42;;;;;;;;;36.00;26.25;;;;;0.84;100.00;100818.66;5024427;28;45322;-76
2022/12/12 06:19:07;;;;;;;;;32.25;25.25;;;;;0.85;100.00;100812.34;5039045;28;46481;-75
2022/12/12 06:21:33;;;;;;;;;36.75;30.25;;;;;0.83;100.00;100826.75;5037715;28;46619;-76
2022/12/12 06:23:58;;;;;;;;;39.75;28.25;;;;;0.82;100.00;100825.03;5036901;28;45465;-76
2022/12/12 06:26:23;;;;;;;;;27.75;24.50;;;;;0.75;100.00;100822.69;5039959;28;45374;-75
2022/12/12 06:28:49;;;;;;;;;44.75;39.00;;;;;0.81;100.00;100828.63;5032222;28;45498;-78
2022/12/12 06:31:14;;;;;;;;;40.50;30.00;;;;;0.84;100.00;100829.34;5030214;28;45536;-76
2022/12/12 06:33:41;;;;;;;;;38.00;33.25;;;;;0.84;100.00;100817.78;5032196;28;45437;-79
2022/12/12 06:36:13;;;;;;;;;34.00;30.25;;;;;0.87;100.00;100831.88;5032117;28;45367;-76
2022/12/12 06:38:39;;;;;;;;;52.50;38.00;;;;;0.84;100.00;100825.81;5036613;28;46437;-76
2022/12/12 06:41:10;;;;;;;;;36.00;34.50;;;;;0.79;100.00;100823.41;5048027;28;47331;-78
2022/12/12 06:43:35;;;;;;;;;34.50;26.00;;;;;0.80;100.00;100830.47;5035762;28;45500;-77
2022/12/12 06:46:03;;;;;;;;;41.75;35.25;;;;;0.82;100.00;100827.69;5033547;28;45775;-78
2022/12/12 06:48:30;;;;;;;;;33.75;30.00;;;;;0.81;100.00;100821.47;5039728;28;45608;-76
2022/12/12 06:50:55;;;;;;;;;49.75;34.50;;;;;0.73;100.00;100819.22;5037347;28;45251;-76
2022/12/12 06:53:21;;;;;;;;;40.25;34.50;;;;;0.78;100.00;100833.22;5027401;28;45386;-77
2022/12/12 06:55:46;;;;;;;;;46.75;37.25;;;;;0.73;100.00;100837.13;5038294;28;45181;-76
2022/12/12 06:58:12;;;;;;;;;48.50;37.00;;;;;0.70;100.00;100835.47;5029794;28;45436;-76
2022/12/12 07:00:37;;;;;;;;;50.25;35.50;;;;;0.69;100.00;100836.41;5040785;28;45410;-77
2022/12/12 07:03:03;;;;;;;;;40.00;30.25;;;;;0.65;100.00;100832.19;5036076;28;45340;-77
2022/12/12 07:05:28;;;;;;;;;49.00;34.00;;;;;0.64;100.00;100833.13;5024762;28;45446;-75
2022/12/12 07:07:54;;;;;;;;;51.50;41.75;;;;;0.62;100.00;100827.00;5030319;28;45451;-75
2022/12/12 07:10:19;;;;;;;;;48.25;38.50;;;;;0.65;100.00;100824.16;5027954;28;45382;-77
2022/12/12 07:12:44;;;;;;;;;44.00;38.00;;;;;0.66;100.00;100820.50;5035328;28;45370;-78
2022/12/12 07:15:10;;;;;;;;;44.75;34.00;;;;;0.61;100.00;100817.25;5035109;28;45478;-77
2022/12/12 07:17:36;;;;;;;;;48.00;34.00;;;;;0.65;100.00;100817.94;5030883;28;45379;-76
2022/12/12 07:20:02;;;;;;;;;50.50;41.25;;;;;0.62;100.00;100813.63;5037728;28;45386;-76
2022/12/12 07:22:28;;;;;;;;;41.50;38.75;;;;;0.56;100.00;100821.97;5035949;28;45594;-75
2022/12/12 07:24:53;;;;;;;;;44.00;35.25;;;;;0.47;100.00;100817.13;5036989;28;45397;-76
2022/12/12 07:27:18;;;;;;;;;39.50;34.00;;;;;0.50;100.00;100838.34;5033909;28;45579;-76
2022/12/12 07:29:44;;;;;;;;;36.75;30.75;;;;;0.45;100.00;100832.38;5031036;28;46684;-76
2022/12/12 07:32:09;;;;;;;;;53.25;34.50;;;;;0.49;100.00;100841.97;5034159;28;45239;-77
2022/12/12 07:34:35;;;;;;;;;46.00;35.75;;;;;0.52;100.00;100847.13;5033657;28;45239;-77
2022/12/12 07:37:01;;;;;;;;;51.75;39.50;;;;;0.53;100.00;100850.66;5035465;28;45560;-76
2022/12/12 07:39:29;;;;;;;;;41.50;32.00;;;;;0.58;100.00;100852.19;5039178;28;46523;-77
2022/12/12 07:41:55;;;;;;;;;34.25;29.00;;;;;0.53;100.00;100851.53;5032492;28;45474;-76
2022/12/12 07:44:20;;;;;;;;;36.25;28.75;;;;;0.53;100.00;100856.88;5032425;28;45368;-77
2022/12/12 07:46:45;;;;;;;;;41.75;37.25;;;;;0.58;100.00;100860.19;5037300;28;45355;-77
2022/12/12 07:49:11;;;;;;;;;36.75;32.50;;;;;0.63;100.00;100858.13;5031982;28;45422;-77
2022/12/12 07:51:37;;;;;;;;;30.75;27.00;;;;;0.62;100.00;100847.50;5037341;28;46143;-78
2022/12/12 07:54:03;;;;;;;;;45.75;34.00;;;;;0.64;100.00;100862.53;5041160;28;45315;-75
2022/12/12 07:56:28;;;;;;;;;44.50;37.50;;;;;0.54;100.00;100847.06;5035291;28;45450;-75
2022/12/12 07:58:54;;;;;;;;;35.00;30.50;;;;;0.53;100.00;100856.00;5030433;28;45420;-76
2022/12/12 08:01:22;;;;;;;;;42.50;35.00;;;;;0.53;100.00;100861.38;5054247;28;45438;-76
2022/12/12 08:03:48;;;;;;;;;42.25;36.50;;;;;0.48;100.00;100853.59;5031942;28;45328;-77
2022/12/12 08:06:15;;;;;;;;;50.25;40.50;;;;;0.50;100.00;100862.41;5032692;28;45508;-76
2022/12/12 08:08:41;;;;;;;;;55.25;41.00;;;;;0.42;100.00;100843.25;5037381;28;45877;-76
2022/12/12 08:11:09;;;;;;;;;43.50;33.25;;;;;0.52;100.00;100864.97;5030828;28;45402;-76
2022/12/12 08:13:37;;;;;;;;;39.25;32.50;;;;;0.50;100.00;100869.56;5032964;28;45228;-77
2022/12/12 08:16:05;;;;;;;;;35.75;31.00;;;;;0.49;100.00;100870.50;5026710;28;45358;-76
2022/12/12 08:18:30;;;;;;;;;44.25;33.25;;;;;0.49;100.00;100875.84;5035249;28;46639;-78
2022/12/12 08:20:55;;;;;;;;;44.25;35.25;;;;;0.50;100.00;100881.13;5039348;28;45302;-76
2022/12/12 08:23:21;;;;;;;;;38.50;33.75;;;;;0.51;100.00;100884.66;5039748;28;45434;-77
2022/12/12 08:25:47;;;;;;;;;49.50;39.00;;;;;0.46;100.00;100867.97;5032308;28;45450;-76
2022/12/12 08:28:12;;;;;;;;;38.50;33.25;;;;;0.56;100.00;100879.94;5031485;28;46179;-76
2022/12/12 08:30:37;;;;;;;;;37.75;30.25;;;;;0.56;100.00;100872.78;5035595;28;45319;-74
2022/12/12 08:33:03;;;;;;;;;40.75;34.00;;;;;0.45;100.00;100867.13;5035184;28;45444;-74
2022/12/12 08:35:29;;;;;;;;;46.00;35.75;;;;;0.49;100.00;100879.38;5043429;28;45515;-76
2022/12/12 08:37:54;;;;;;;;;41.25;40.25;;;;;0.41;100.00;100889.63;5036102;28;45427;-76
2022/12/12 08:40:20;;;;;;;;;54.25;40.25;;;;;0.49;100.00;100875.84;5035444;28;44661;-76
2022/12/12 08:42:45;;;;;;;;;48.00;37.75;;;;;0.59;100.00;100883.28;5034945;28;45469;-76
2022/12/12 08:45:11;;;;;;;;;47.00;36.00;;;;;0.63;100.00;100890.22;5041964;28;45499;-76
2022/12/12 08:47:36;;;;;;;;;48.00;37.75;;;;;0.57;100.00;100882.53;5035220;28;45299;-77
2022/12/12 08:50:02;;;;;;;;;41.00;38.25;;;;;0.72;100.00;100895.06;5032694;28;45207;-76
2022/12/12 08:52:28;;;;;;;;;48.75;41.25;;;;;0.70;100.00;100902.31;5035278;28;45469;-75
2022/12/12 08:54:53;;;;;;;;;56.50;40.75;;;;;0.74;100.00;100903.84;5034882;28;45582;-75
2022/12/12 08:57:18;;;;;;;;;52.25;39.75;;;;;0.73;100.00;100902.13;5036139;28;45512;-74
2022/12/12 08:59:44;;;;;;;;;49.50;37.00;;;;;0.74;100.00;100903.84;5036079;28;45382;-76
2022/12/12 09:02:11;;;;;;;;;37.25;31.00;;;;;0.83;100.00;100923.03;5039175;28;45399;-76
2022/12/12 09:04:37;;;;;;;;;39.00;32.00;;;;;0.73;100.00;100901.28;5023656;28;45476;-76
2022/12/12 09:07:02;;;;;;;;;35.50;31.50;;;;;0.86;100.00;100912.19;5036595;28;46622;-75
2022/12/12 09:09:28;;;;;;;;;48.50;38.00;;;;;0.83;100.00;100907.84;5032654;28;45344;-76
2022/12/12 09:11:53;;;;;;;;;59.00;36.50;;;;;0.91;100.00;100908.31;5028853;28;45323;-76
2022/12/12 09:14:19;;;;;;;;;43.25;34.75;;;;;0.93;100.00;100905.56;5038543;28;45270;-77
2022/12/12 09:16:44;;;;;;;;;53.25;42.50;;;;;0.99;100.00;100913.22;5037597;28;45628;-76
2022/12/12 09:19:10;;;;;;;;;41.00;37.00;;;;;1.03;100.00;100920.13;5038536;28;45259;-75
2022/12/12 09:21:36;;;;;;;;;46.25;35.75;;;;;0.76;100.00;100899.28;5034456;28;45303;-76
2022/12/12 09:24:02;;;;;;;;;37.50;33.00;;;;;0.81;100.00;100914.22;5032385;28;45402;-75
2022/12/12 09:26:27;;;;;;;;;48.50;42.25;;;;;0.84;100.00;100919.41;5038082;28;45604;-76
2022/12/12 09:28:53;;;;;;;;;42.00;35.25;;;;;0.98;100.00;100917.72;5032399;28;45236;-75
2022/12/12 09:31:18;;;;;;;;;58.25;39.75;;;;;0.99;100.00;100919.44;5036382;28;45323;-75
2022/12/12 09:33:43;;;;;;;;;37.50;26.75;;;;;1.03;100.00;100904.94;5030970;28;45339;-75
2022/12/12 09:36:11;;;;;;;;;62.00;44.25;;;;;1.19;100.00;100904.97;5032988;28;45615;-76
2022/12/12 09:38:36;;;;;;;;;41.25;36.00;;;;;1.30;100.00;100905.25;5039753;28;45370;-77
2022/12/12 09:41:09;;;;;;;;;39.75;35.25;;;;;1.37;100.00;100889.72;5025551;28;45499;-75
2022/12/12 09:43:56;;;;;;;;;54.25;44.75;;;;;1.43;100.00;100898.25;5039503;28;45601;-77
2022/12/12 09:47:00;;;;;;;;;50.00;41.50;;;;;1.36;100.00;100898.69;5027334;28;45501;-75
2022/12/12 09:49:49;;;;;;;;;52.25;42.75;;;;;1.29;100.00;100895.50;5034418;28;45467;-77
2022/12/12 09:52:22;;;;;;;;;53.75;41.00;;;;;1.24;100.00;100910.94;5033942;28;45494;-75
2022/12/12 09:54:47;;;;;;;;;44.50;35.75;;;;;1.13;100.00;100905.31;5033018;28;45349;-75
2022/12/12 09:57:35;;;;;;;;;42.50;42.00;;;;;1.02;100.00;100907.72;5034189;28;46616;-76
2022/12/12 10:00:11;;;;;;;;;43.75;35.50;;;;;0.97;100.00;100899.94;5040552;28;45322;-76
2022/12/12 10:02:45;;;;;;;;;38.00;25.50;;;;;1.01;100.00;100895.31;5037320;28;45463;-76
2022/12/12 10:05:20;;;;;;;;;43.00;33.00;;;;;0.92;100.00;100895.78;5028242;28;45216;-75
2022/12/12 10:08:24;;;;;;;;;51.50;41.75;;;;;0.68;100.00;100888.16;5030108;28;46827;-75
2022/12/12 10:11:03;;;;;;;;;46.25;36.25;;;;;0.72;100.00;100895.06;5035671;28;45346;-76
2022/12/12 10:13:33;;;;;;;;;41.50;35.25;;;;;0.78;100.00;100889.38;5034945;28;45401;-76
2022/12/12 10:16:02;;;;;;;;;40.75;34.00;;;;;0.80;100.00;100886.63;5019766;28;45588;-75
2022/12/12 10:18:33;;;;;;;;;47.75;39.00;;;;;0.80;100.00;100886.63;5029537;28;47046;-76
2022/12/12 10:21:01;;;;;;;;;43.50;36.00;;;;;0.85;100.00;100883.69;5031453;28;45366;-76
2022/12/12 10:23:45;;;;;;;;;46.75;41.25;;;;;0.90;100.00;100876.28;5031432;28;45446;-75
2022/12/12 10:26:26;;;;;;;;;46.75;39.25;;;;;0.98;100.00;100876.72;5036095;28;45656;-75
2022/12/12 10:29:09;;;;;;;;;50.50;42.50;;;;;1.05;100.00;100870.09;5034831;28;45499;-76
2022/12/12 10:31:43;;;;;;;;;48.25;42.25;;;;;1.14;100.00;100870.44;5037841;28;45395;-77
2022/12/12 10:34:40;;;;;;;;;64.00;45.75;;;;;1.07;100.00;100858.38;5031244;28;45425;-75
2022/12/12 10:37:37;;;;;;;;;44.25;37.75;;;;;1.01;100.00;100863.19;5026689;28;45375;-75
2022/12/12 10:40:21;;;;;;;;;51.50;37.50;;;;;1.05;100.00;100876.31;5026107;28;46717;-75
2022/12/12 10:43:21;;;;;;;;;57.00;46.00;;;;;0.89;100.00;100858.50;5036476;28;45908;-75
2022/12/12 10:46:14;;;;;;;;;52.50;39.50;;;;;0.87;100.00;100871.13;5042569;28;45461;-75
2022/12/12 10:48:41;;;;;;;;;63.25;44.25;;;;;0.73;100.00;100871.88;5031866;28;45374;-75
2022/12/12 10:51:10;;;;;;;;;62.00;40.75;;;;;0.85;100.00;100881.03;5004350;28;47137;-75
2022/12/12 10:53:38;;;;;;;;;51.00;42.00;;;;;0.98;100.00;100874.91;5031945;28;45565;-77
2022/12/12 10:56:03;;;;;;;;;50.75;42.75;;;;;1.02;100.00;100881.81;5034888;28;45387;-75
2022/12/12 10:58:39;;;;;;;;;47.75;41.50;;;;;0.99;100.00;100865.94;5030886;28;45285;-76
2022/12/12 11:01:17;;;;;;;;;68.75;49.50;;;;;1.02;100.00;100868.44;5041606;28;45537;-76
2022/12/12 11:03:48;;;;;;;;;58.00;42.00;;;;;1.03;100.00;100850.56;5047163;28;45335;-75
2022/12/12 11:06:25;;;;;;;;;54.75;42.75;;;;;0.98;100.00;100852.66;5030961;28;45331;-75
2022/12/12 11:08:57;;;;;;;;;55.75;44.75;;;;;0.96;100.00;100846.50;5031933;28;45445;-74
2022/12/12 11:11:27;;;;;;;;;42.00;33.50;;;;;1.10;100.00;100838.56;5026306;28;45476;-75
2022/12/12 11:13:59;;;;;;;;;53.00;39.25;;;;;1.17;100.00;100832.78;5031919;28;45246;-77
2022/12/12 11:16:45;;;;;;;;;45.50;40.50;;;;;1.31;100.00;100828.50;5028571;28;45354;-75
2022/12/12 11:19:21;;;;;;;;;51.50;41.00;;;;;1.36;100.00;100827.28;5030415;28;45615;-75
2022/12/12 11:21:47;;;;;;;;;48.50;43.75;;;;;1.15;100.00;100801.75;5037773;28;47735;-75
2022/12/12 11:24:19;;;;;;;;;54.00;43.00;;;;;1.26;100.00;100820.72;5032311;28;46298;-74
2022/12/12 11:26:55;;;;;;;;;49.00;39.25;;;;;1.25;100.00;100804.72;5038347;28;45349;-75
2022/12/12 11:29:38;;;;;;;;;43.00;38.50;;;;;1.27;100.00;100811.72;5038841;28;45287;-76
2022/12/12 11:32:10;;;;;;;;;50.75;45.00;;;;;1.16;100.00;100782.06;5032537;28;45319;-77
2022/12/12 11:34:38;;;;;;;;;62.00;45.00;;;;;1.20;100.00;100782.72;5032228;28;45390;-74
2022/12/12 11:37:05;;;;;;;;;53.00;42.75;;;;;1.14;100.00;100760.75;5037393;28;45406;-76
2022/12/12 11:39:42;;;;;;;;;57.00;46.00;;;;;1.05;100.00;100765.75;5037561;28;45471;-74